sensor_id;sensor_type;location;lat;lon;timestamp;P1;durP1;ratioP1;P2;durP2;ratioP2
55497;SDS011;41357;52.806;18.268;2023-03-01T00:01:30;34.42;;;12.25;;
55497;SDS011;41357;52.806;18.268;2023-03-01T00:03:57;37.67;;;11.00;;
55497;SDS011;41357;52.806;18.268;2023-03-01T00:06:24;44.78;;;14.23;;
55497;SDS011;41357;52.806;18.268;2023-03-01T00:08:50;38.40;;;14.40;;
55497;SDS011;41357;52.806;18.268;2023-03-01T00:11:20;32.08;;;12.02;;
55497;SDS011;41357;52.806;18.268;2023-03-01T00:13:47;29.05;;;12.23;;
55497;SDS011;41357;52.806;18.268;2023-03-01T00:16:15;31.58;;;11.77;;
55497;SDS011;41357;52.806;18.268;2023-03-01T00:18:42;27.60;;;12.15;;
55497;SDS011;41357;52.806;18.268;2023-03-01T00:21:09;33.47;;;13.05;;
55497;SDS011;41357;52.806;18.268;2023-03-01T00:23:36;28.95;;;13.35;;
55497;SDS011;41357;52.806;18.268;2023-03-01T00:26:05;24.85;;;11.00;;
55497;SDS011;41357;52.806;18.268;2023-03-01T00:28:31;30.67;;;13.27;;
55497;SDS011;41357;52.806;18.268;2023-03-01T00:31:05;30.80;;;11.82;;
55497;SDS011;41357;52.806;18.268;2023-03-01T00:33:31;31.20;;;12.20;;
55497;SDS011;41357;52.806;18.268;2023-03-01T00:35:57;30.23;;;11.68;;
55497;SDS011;41357;52.806;18.268;2023-03-01T00:38:24;35.63;;;12.75;;
55497;SDS011;41357;52.806;18.268;2023-03-01T00:40:50;33.50;;;12.73;;
55497;SDS011;41357;52.806;18.268;2023-03-01T00:43:16;35.22;;;12.40;;
55497;SDS011;41357;52.806;18.268;2023-03-01T00:45:42;34.50;;;13.23;;
55497;SDS011;41357;52.806;18.268;2023-03-01T00:48:08;43.72;;;13.73;;
55497;SDS011;41357;52.806;18.268;2023-03-01T00:50:34;34.25;;;12.55;;
55497;SDS011;41357;52.806;18.268;2023-03-01T00:53:00;33.15;;;12.10;;
55497;SDS011;41357;52.806;18.268;2023-03-01T00:55:27;37.00;;;14.40;;
55497;SDS011;41357;52.806;18.268;2023-03-01T00:57:53;33.63;;;12.70;;
55497;SDS011;41357;52.806;18.268;2023-03-01T01:00:19;31.13;;;13.00;;
55497;SDS011;41357;52.806;18.268;2023-03-01T01:02:45;33.20;;;12.75;;
55497;SDS011;41357;52.806;18.268;2023-03-01T01:05:12;33.50;;;12.27;;
55497;SDS011;41357;52.806;18.268;2023-03-01T01:07:38;34.08;;;12.95;;
55497;SDS011;41357;52.806;18.268;2023-03-01T01:10:04;37.70;;;12.38;;
55497;SDS011;41357;52.806;18.268;2023-03-01T01:12:31;38.08;;;12.13;;
55497;SDS011;41357;52.806;18.268;2023-03-01T01:14:57;30.45;;;11.57;;
55497;SDS011;41357;52.806;18.268;2023-03-01T01:17:23;37.78;;;14.63;;
55497;SDS011;41357;52.806;18.268;2023-03-01T01:19:49;34.83;;;14.60;;
55497;SDS011;41357;52.806;18.268;2023-03-01T01:22:15;33.42;;;13.25;;
55497;SDS011;41357;52.806;18.268;2023-03-01T01:24:41;32.78;;;12.43;;
55497;SDS011;41357;52.806;18.268;2023-03-01T01:27:08;34.78;;;12.73;;
55497;SDS011;41357;52.806;18.268;2023-03-01T01:29:34;30.50;;;13.50;;
55497;SDS011;41357;52.806;18.268;2023-03-01T01:32:00;29.02;;;10.70;;
55497;SDS011;41357;52.806;18.268;2023-03-01T01:34:26;29.00;;;11.88;;
55497;SDS011;41357;52.806;18.268;2023-03-01T01:36:52;26.83;;;10.48;;
55497;SDS011;41357;52.806;18.268;2023-03-01T01:39:19;32.80;;;13.07;;
55497;SDS011;41357;52.806;18.268;2023-03-01T01:41:46;33.95;;;10.85;;
55497;SDS011;41357;52.806;18.268;2023-03-01T01:46:39;31.60;;;10.85;;
55497;SDS011;41357;52.806;18.268;2023-03-01T01:49:07;27.02;;;11.55;;
55497;SDS011;41357;52.806;18.268;2023-03-01T01:51:38;38.50;;;11.88;;
55497;SDS011;41357;52.806;18.268;2023-03-01T01:54:08;32.30;;;11.55;;
55497;SDS011;41357;52.806;18.268;2023-03-01T01:56:36;26.77;;;11.27;;
55497;SDS011;41357;52.806;18.268;2023-03-01T01:59:03;28.05;;;11.27;;
55497;SDS011;41357;52.806;18.268;2023-03-01T02:01:29;25.92;;;11.05;;
55497;SDS011;41357;52.806;18.268;2023-03-01T02:03:55;29.48;;;11.75;;
55497;SDS011;41357;52.806;18.268;2023-03-01T02:06:25;26.60;;;10.25;;
55497;SDS011;41357;52.806;18.268;2023-03-01T02:08:53;35.60;;;11.02;;
55497;SDS011;41357;52.806;18.268;2023-03-01T02:11:21;30.60;;;11.38;;
55497;SDS011;41357;52.806;18.268;2023-03-01T02:13:47;33.53;;;10.38;;
55497;SDS011;41357;52.806;18.268;2023-03-01T02:16:14;28.40;;;11.80;;
55497;SDS011;41357;52.806;18.268;2023-03-01T02:18:41;34.60;;;12.77;;
55497;SDS011;41357;52.806;18.268;2023-03-01T02:23:34;37.08;;;14.05;;
55497;SDS011;41357;52.806;18.268;2023-03-01T02:26:01;31.92;;;11.98;;
55497;SDS011;41357;52.806;18.268;2023-03-01T02:28:35;29.33;;;11.23;;
55497;SDS011;41357;52.806;18.268;2023-03-01T02:31:03;44.50;;;13.70;;
55497;SDS011;41357;52.806;18.268;2023-03-01T02:33:49;32.17;;;13.25;;
55497;SDS011;41357;52.806;18.268;2023-03-01T02:36:17;33.15;;;12.73;;
55497;SDS011;41357;52.806;18.268;2023-03-01T02:38:43;30.70;;;11.45;;
55497;SDS011;41357;52.806;18.268;2023-03-01T02:41:10;29.60;;;12.90;;
55497;SDS011;41357;52.806;18.268;2023-03-01T02:43:37;33.90;;;11.40;;
55497;SDS011;41357;52.806;18.268;2023-03-01T02:46:05;30.23;;;11.85;;
55497;SDS011;41357;52.806;18.268;2023-03-01T02:48:42;30.17;;;11.65;;
55497;SDS011;41357;52.806;18.268;2023-03-01T02:51:18;31.63;;;11.75;;
55497;SDS011;41357;52.806;18.268;2023-03-01T02:53:55;28.92;;;11.50;;
55497;SDS011;41357;52.806;18.268;2023-03-01T02:56:24;28.15;;;11.25;;
55497;SDS011;41357;52.806;18.268;2023-03-01T02:58:51;33.22;;;11.40;;
55497;SDS011;41357;52.806;18.268;2023-03-01T03:01:19;23.60;;;10.50;;
55497;SDS011;41357;52.806;18.268;2023-03-01T03:03:45;25.35;;;10.65;;
55497;SDS011;41357;52.806;18.268;2023-03-01T03:06:12;29.63;;;10.40;;
55497;SDS011;41357;52.806;18.268;2023-03-01T03:08:38;37.75;;;12.60;;
55497;SDS011;41357;52.806;18.268;2023-03-01T03:11:04;26.15;;;11.77;;
55497;SDS011;41357;52.806;18.268;2023-03-01T03:13:30;25.48;;;11.07;;
55497;SDS011;41357;52.806;18.268;2023-03-01T03:15:57;27.13;;;11.82;;
55497;SDS011;41357;52.806;18.268;2023-03-01T03:18:23;38.35;;;13.93;;
55497;SDS011;41357;52.806;18.268;2023-03-01T03:20:53;34.25;;;11.32;;
55497;SDS011;41357;52.806;18.268;2023-03-01T03:23:20;33.88;;;12.52;;
55497;SDS011;41357;52.806;18.268;2023-03-01T03:25:50;34.65;;;12.10;;
55497;SDS011;41357;52.806;18.268;2023-03-01T03:28:17;35.72;;;12.52;;
55497;SDS011;41357;52.806;18.268;2023-03-01T03:30:43;26.35;;;11.73;;
55497;SDS011;41357;52.806;18.268;2023-03-01T03:33:10;25.90;;;12.27;;
55497;SDS011;41357;52.806;18.268;2023-03-01T03:35:45;29.70;;;10.18;;
55497;SDS011;41357;52.806;18.268;2023-03-01T03:38:12;28.85;;;10.75;;
55497;SDS011;41357;52.806;18.268;2023-03-01T03:40:46;25.45;;;10.63;;
55497;SDS011;41357;52.806;18.268;2023-03-01T03:43:14;30.30;;;11.48;;
55497;SDS011;41357;52.806;18.268;2023-03-01T03:45:40;29.77;;;11.45;;
55497;SDS011;41357;52.806;18.268;2023-03-01T03:48:07;27.08;;;10.40;;
55497;SDS011;41357;52.806;18.268;2023-03-01T03:50:34;39.55;;;12.68;;
55497;SDS011;41357;52.806;18.268;2023-03-01T03:53:01;39.83;;;12.85;;
55497;SDS011;41357;52.806;18.268;2023-03-01T03:55:28;47.75;;;13.95;;
55497;SDS011;41357;52.806;18.268;2023-03-01T03:57:57;50.15;;;15.55;;
55497;SDS011;41357;52.806;18.268;2023-03-01T04:02:53;38.05;;;11.27;;
55497;SDS011;41357;52.806;18.268;2023-03-01T04:05:21;32.50;;;10.25;;
55497;SDS011;41357;52.806;18.268;2023-03-01T04:07:48;26.27;;;10.02;;
55497;SDS011;41357;52.806;18.268;2023-03-01T04:10:15;26.02;;;10.13;;
55497;SDS011;41357;52.806;18.268;2023-03-01T04:12:42;24.25;;;9.48;;
55497;SDS011;41357;52.806;18.268;2023-03-01T04:15:09;28.25;;;10.43;;
55497;SDS011;41357;52.806;18.268;2023-03-01T04:17:39;26.58;;;9.77;;
55497;SDS011;41357;52.806;18.268;2023-03-01T04:20:06;26.38;;;9.35;;
55497;SDS011;41357;52.806;18.268;2023-03-01T04:22:33;19.30;;;9.30;;
55497;SDS011;41357;52.806;18.268;2023-03-01T04:24:59;25.75;;;8.80;;
55497;SDS011;41357;52.806;18.268;2023-03-01T04:27:32;27.85;;;10.05;;
55497;SDS011;41357;52.806;18.268;2023-03-01T04:29:58;34.88;;;10.20;;
55497;SDS011;41357;52.806;18.268;2023-03-01T04:32:25;24.58;;;10.77;;
55497;SDS011;41357;52.806;18.268;2023-03-01T04:34:51;25.52;;;10.43;;
55497;SDS011;41357;52.806;18.268;2023-03-01T04:37:17;31.40;;;10.75;;
55497;SDS011;41357;52.806;18.268;2023-03-01T04:39:43;28.23;;;10.60;;
55497;SDS011;41357;52.806;18.268;2023-03-01T04:42:13;26.08;;;10.00;;
55497;SDS011;41357;52.806;18.268;2023-03-01T04:44:39;27.90;;;10.10;;
55497;SDS011;41357;52.806;18.268;2023-03-01T04:47:05;28.48;;;11.65;;
55497;SDS011;41357;52.806;18.268;2023-03-01T04:49:31;29.38;;;11.88;;
55497;SDS011;41357;52.806;18.268;2023-03-01T04:51:57;27.10;;;10.77;;
55497;SDS011;41357;52.806;18.268;2023-03-01T04:54:27;23.80;;;11.52;;
55497;SDS011;41357;52.806;18.268;2023-03-01T04:56:53;24.27;;;9.10;;
55497;SDS011;41357;52.806;18.268;2023-03-01T04:59:19;33.45;;;11.18;;
55497;SDS011;41357;52.806;18.268;2023-03-01T05:01:48;22.33;;;8.70;;
55497;SDS011;41357;52.806;18.268;2023-03-01T05:04:14;33.67;;;10.75;;
55497;SDS011;41357;52.806;18.268;2023-03-01T05:06:40;29.23;;;12.43;;
55497;SDS011;41357;52.806;18.268;2023-03-01T05:09:06;26.25;;;11.10;;
55497;SDS011;41357;52.806;18.268;2023-03-01T05:11:32;26.70;;;11.02;;
55497;SDS011;41357;52.806;18.268;2023-03-01T05:14:04;28.38;;;10.32;;
55497;SDS011;41357;52.806;18.268;2023-03-01T05:16:30;21.95;;;10.15;;
55497;SDS011;41357;52.806;18.268;2023-03-01T05:18:57;22.52;;;10.90;;
55497;SDS011;41357;52.806;18.268;2023-03-01T05:21:23;27.73;;;10.85;;
55497;SDS011;41357;52.806;18.268;2023-03-01T05:23:50;27.98;;;11.15;;
55497;SDS011;41357;52.806;18.268;2023-03-01T05:26:17;29.90;;;13.88;;
55497;SDS011;41357;52.806;18.268;2023-03-01T05:28:43;30.83;;;12.55;;
55497;SDS011;41357;52.806;18.268;2023-03-01T05:31:09;26.10;;;11.30;;
55497;SDS011;41357;52.806;18.268;2023-03-01T05:33:39;29.38;;;11.57;;
55497;SDS011;41357;52.806;18.268;2023-03-01T05:36:09;28.15;;;9.93;;
55497;SDS011;41357;52.806;18.268;2023-03-01T05:38:35;24.98;;;10.13;;
55497;SDS011;41357;52.806;18.268;2023-03-01T05:41:01;19.63;;;8.38;;
55497;SDS011;41357;52.806;18.268;2023-03-01T05:43:30;21.77;;;9.73;;
55497;SDS011;41357;52.806;18.268;2023-03-01T05:45:59;25.42;;;11.65;;
55497;SDS011;41357;52.806;18.268;2023-03-01T05:48:25;29.67;;;11.02;;
55497;SDS011;41357;52.806;18.268;2023-03-01T05:50:51;29.27;;;11.18;;
55497;SDS011;41357;52.806;18.268;2023-03-01T05:53:18;33.72;;;12.05;;
55497;SDS011;41357;52.806;18.268;2023-03-01T05:55:46;32.78;;;13.35;;
55497;SDS011;41357;52.806;18.268;2023-03-01T05:58:13;34.13;;;12.20;;
55497;SDS011;41357;52.806;18.268;2023-03-01T06:00:40;32.90;;;13.05;;
55497;SDS011;41357;52.806;18.268;2023-03-01T06:03:08;32.85;;;12.02;;
55497;SDS011;41357;52.806;18.268;2023-03-01T06:05:35;20.10;;;10.35;;
55497;SDS011;41357;52.806;18.268;2023-03-01T06:08:01;36.88;;;13.32;;
55497;SDS011;41357;52.806;18.268;2023-03-01T06:10:28;27.40;;;11.23;;
55497;SDS011;41357;52.806;18.268;2023-03-01T06:12:54;35.78;;;11.88;;
55497;SDS011;41357;52.806;18.268;2023-03-01T06:15:21;31.05;;;9.95;;
55497;SDS011;41357;52.806;18.268;2023-03-01T06:17:48;28.98;;;13.10;;
55497;SDS011;41357;52.806;18.268;2023-03-01T06:20:15;29.55;;;12.13;;
55497;SDS011;41357;52.806;18.268;2023-03-01T06:22:42;35.92;;;12.73;;
55497;SDS011;41357;52.806;18.268;2023-03-01T06:25:14;33.85;;;11.25;;
55497;SDS011;41357;52.806;18.268;2023-03-01T06:27:40;26.92;;;11.50;;
55497;SDS011;41357;52.806;18.268;2023-03-01T06:30:07;30.30;;;11.90;;
55497;SDS011;41357;52.806;18.268;2023-03-01T06:32:35;33.72;;;12.48;;
55497;SDS011;41357;52.806;18.268;2023-03-01T06:35:01;25.30;;;12.40;;
55497;SDS011;41357;52.806;18.268;2023-03-01T06:37:27;35.75;;;15.20;;
55497;SDS011;41357;52.806;18.268;2023-03-01T06:39:53;39.30;;;15.75;;
55497;SDS011;41357;52.806;18.268;2023-03-01T06:42:19;31.10;;;13.23;;
55497;SDS011;41357;52.806;18.268;2023-03-01T06:44:45;29.05;;;11.48;;
55497;SDS011;41357;52.806;18.268;2023-03-01T06:47:11;29.42;;;11.60;;
55497;SDS011;41357;52.806;18.268;2023-03-01T06:49:38;47.13;;;13.60;;
55497;SDS011;41357;52.806;18.268;2023-03-01T06:52:04;40.17;;;14.85;;
55497;SDS011;41357;52.806;18.268;2023-03-01T06:54:30;37.22;;;10.20;;
55497;SDS011;41357;52.806;18.268;2023-03-01T06:56:56;35.25;;;13.35;;
55497;SDS011;41357;52.806;18.268;2023-03-01T06:59:22;30.48;;;13.70;;
55497;SDS011;41357;52.806;18.268;2023-03-01T07:01:48;30.17;;;12.32;;
55497;SDS011;41357;52.806;18.268;2023-03-01T07:04:14;41.53;;;15.18;;
55497;SDS011;41357;52.806;18.268;2023-03-01T07:06:40;35.15;;;12.00;;
55497;SDS011;41357;52.806;18.268;2023-03-01T07:09:06;31.25;;;11.95;;
55497;SDS011;41357;52.806;18.268;2023-03-01T07:11:33;23.90;;;11.82;;
55497;SDS011;41357;52.806;18.268;2023-03-01T07:13:59;38.75;;;14.68;;
55497;SDS011;41357;52.806;18.268;2023-03-01T07:16:25;37.70;;;12.93;;
55497;SDS011;41357;52.806;18.268;2023-03-01T07:18:51;38.42;;;15.20;;
55497;SDS011;41357;52.806;18.268;2023-03-01T07:21:17;41.17;;;13.80;;
55497;SDS011;41357;52.806;18.268;2023-03-01T07:23:43;37.00;;;12.85;;
55497;SDS011;41357;52.806;18.268;2023-03-01T07:26:09;30.95;;;12.65;;
55497;SDS011;41357;52.806;18.268;2023-03-01T07:28:36;35.35;;;12.70;;
55497;SDS011;41357;52.806;18.268;2023-03-01T07:31:04;37.95;;;13.70;;
55497;SDS011;41357;52.806;18.268;2023-03-01T07:33:31;55.38;;;15.85;;
55497;SDS011;41357;52.806;18.268;2023-03-01T07:35:58;45.03;;;15.30;;
55497;SDS011;41357;52.806;18.268;2023-03-01T07:38:24;48.65;;;15.88;;
55497;SDS011;41357;52.806;18.268;2023-03-01T07:40:50;25.95;;;8.98;;
55497;SDS011;41357;52.806;18.268;2023-03-01T07:43:16;50.15;;;15.30;;
55497;SDS011;41357;52.806;18.268;2023-03-01T07:45:43;36.65;;;13.90;;
55497;SDS011;41357;52.806;18.268;2023-03-01T07:48:09;35.85;;;12.90;;
55497;SDS011;41357;52.806;18.268;2023-03-01T07:50:35;27.83;;;12.00;;
55497;SDS011;41357;52.806;18.268;2023-03-01T07:53:01;29.95;;;11.32;;
55497;SDS011;41357;52.806;18.268;2023-03-01T07:55:27;26.25;;;10.48;;
55497;SDS011;41357;52.806;18.268;2023-03-01T07:57:53;29.92;;;10.85;;
55497;SDS011;41357;52.806;18.268;2023-03-01T08:00:20;24.48;;;9.00;;
55497;SDS011;41357;52.806;18.268;2023-03-01T08:02:46;29.35;;;10.45;;
55497;SDS011;41357;52.806;18.268;2023-03-01T08:05:12;24.05;;;9.60;;
55497;SDS011;41357;52.806;18.268;2023-03-01T08:07:38;20.27;;;7.72;;
55497;SDS011;41357;52.806;18.268;2023-03-01T08:10:04;31.17;;;10.45;;
55497;SDS011;41357;52.806;18.268;2023-03-01T08:12:31;27.60;;;10.75;;
55497;SDS011;41357;52.806;18.268;2023-03-01T08:14:57;29.75;;;10.02;;
55497;SDS011;41357;52.806;18.268;2023-03-01T08:17:23;28.23;;;9.57;;
55497;SDS011;41357;52.806;18.268;2023-03-01T08:19:49;26.95;;;8.55;;
55497;SDS011;41357;52.806;18.268;2023-03-01T08:22:16;29.17;;;10.25;;
55497;SDS011;41357;52.806;18.268;2023-03-01T08:24:42;23.17;;;9.82;;
55497;SDS011;41357;52.806;18.268;2023-03-01T08:27:08;13.90;;;5.75;;
55497;SDS011;41357;52.806;18.268;2023-03-01T08:29:35;19.80;;;8.32;;
55497;SDS011;41357;52.806;18.268;2023-03-01T08:32:01;18.83;;;8.48;;
55497;SDS011;41357;52.806;18.268;2023-03-01T08:34:27;19.08;;;9.15;;
55497;SDS011;41357;52.806;18.268;2023-03-01T08:36:53;21.63;;;9.63;;
55497;SDS011;41357;52.806;18.268;2023-03-01T08:39:19;23.15;;;10.20;;
55497;SDS011;41357;52.806;18.268;2023-03-01T08:41:46;28.60;;;11.77;;
55497;SDS011;41357;52.806;18.268;2023-03-01T08:44:13;26.67;;;10.02;;
55497;SDS011;41357;52.806;18.268;2023-03-01T08:46:41;28.33;;;10.55;;
55497;SDS011;41357;52.806;18.268;2023-03-01T08:49:08;33.85;;;10.85;;
55497;SDS011;41357;52.806;18.268;2023-03-01T08:51:35;22.75;;;9.80;;
55497;SDS011;41357;52.806;18.268;2023-03-01T08:54:05;26.00;;;10.77;;
55497;SDS011;41357;52.806;18.268;2023-03-01T08:56:31;26.98;;;11.55;;
55497;SDS011;41357;52.806;18.268;2023-03-01T08:58:57;20.73;;;10.73;;
55497;SDS011;41357;52.806;18.268;2023-03-01T09:01:24;26.23;;;11.15;;
55497;SDS011;41357;52.806;18.268;2023-03-01T09:03:50;18.85;;;7.82;;
55497;SDS011;41357;52.806;18.268;2023-03-01T09:06:16;23.42;;;9.23;;
55497;SDS011;41357;52.806;18.268;2023-03-01T09:08:43;25.17;;;9.80;;
55497;SDS011;41357;52.806;18.268;2023-03-01T09:11:11;19.63;;;9.10;;
55497;SDS011;41357;52.806;18.268;2023-03-01T09:13:37;24.63;;;9.25;;
55497;SDS011;41357;52.806;18.268;2023-03-01T09:16:04;23.58;;;9.38;;
55497;SDS011;41357;52.806;18.268;2023-03-01T09:18:31;29.80;;;9.55;;
55497;SDS011;41357;52.806;18.268;2023-03-01T09:21:14;23.85;;;9.57;;
55497;SDS011;41357;52.806;18.268;2023-03-01T09:23:41;22.95;;;8.88;;
55497;SDS011;41357;52.806;18.268;2023-03-01T09:26:08;29.98;;;10.75;;
55497;SDS011;41357;52.806;18.268;2023-03-01T09:28:38;29.20;;;11.90;;
55497;SDS011;41357;52.806;18.268;2023-03-01T09:31:06;26.13;;;9.85;;
55497;SDS011;41357;52.806;18.268;2023-03-01T09:33:32;16.92;;;6.82;;
55497;SDS011;41357;52.806;18.268;2023-03-01T09:36:02;21.08;;;7.75;;
55497;SDS011;41357;52.806;18.268;2023-03-01T09:38:29;24.63;;;10.50;;
55497;SDS011;41357;52.806;18.268;2023-03-01T09:40:55;22.80;;;9.15;;
55497;SDS011;41357;52.806;18.268;2023-03-01T09:45:59;29.52;;;10.27;;
55497;SDS011;41357;52.806;18.268;2023-03-01T09:48:27;32.50;;;10.85;;
55497;SDS011;41357;52.806;18.268;2023-03-01T09:50:54;23.20;;;10.30;;
55497;SDS011;41357;52.806;18.268;2023-03-01T09:53:23;28.73;;;11.95;;
55497;SDS011;41357;52.806;18.268;2023-03-01T09:56:00;26.02;;;10.77;;
55497;SDS011;41357;52.806;18.268;2023-03-01T10:01:22;25.60;;;10.85;;
55497;SDS011;41357;52.806;18.268;2023-03-01T10:04:04;23.08;;;9.93;;
55497;SDS011;41357;52.806;18.268;2023-03-01T10:06:34;27.08;;;10.68;;
55497;SDS011;41357;52.806;18.268;2023-03-01T10:11:28;27.60;;;11.32;;
55497;SDS011;41357;52.806;18.268;2023-03-01T10:14:01;24.55;;;12.02;;
55497;SDS011;41357;52.806;18.268;2023-03-01T10:16:34;23.77;;;10.60;;
55497;SDS011;41357;52.806;18.268;2023-03-01T10:19:04;27.48;;;11.95;;
55497;SDS011;41357;52.806;18.268;2023-03-01T10:21:31;24.42;;;12.15;;
55497;SDS011;41357;52.806;18.268;2023-03-01T10:24:08;31.20;;;13.07;;
55497;SDS011;41357;52.806;18.268;2023-03-01T10:26:38;26.52;;;10.50;;
55497;SDS011;41357;52.806;18.268;2023-03-01T10:29:08;25.33;;;10.80;;
55497;SDS011;41357;52.806;18.268;2023-03-01T10:34:36;28.15;;;11.93;;
55497;SDS011;41357;52.806;18.268;2023-03-01T10:37:17;25.38;;;11.43;;
55497;SDS011;41357;52.806;18.268;2023-03-01T10:47:45;25.98;;;10.73;;
55497;SDS011;41357;52.806;18.268;2023-03-01T10:50:19;26.23;;;11.60;;
55497;SDS011;41357;52.806;18.268;2023-03-01T10:52:55;24.00;;;11.18;;
55497;SDS011;41357;52.806;18.268;2023-03-01T10:55:35;24.00;;;11.82;;
55497;SDS011;41357;52.806;18.268;2023-03-01T11:00:50;39.10;;;20.20;;
55497;SDS011;41357;52.806;18.268;2023-03-01T11:03:19;53.45;;;24.13;;
55497;SDS011;41357;52.806;18.268;2023-03-01T11:05:51;48.15;;;23.85;;
55497;SDS011;41357;52.806;18.268;2023-03-01T11:13:31;36.55;;;17.70;;
55497;SDS011;41357;52.806;18.268;2023-03-01T11:15:59;33.03;;;15.95;;
55497;SDS011;41357;52.806;18.268;2023-03-01T11:18:25;36.13;;;16.45;;
55497;SDS011;41357;52.806;18.268;2023-03-01T11:20:53;34.38;;;12.32;;
55497;SDS011;41357;52.806;18.268;2023-03-01T11:23:19;25.33;;;13.10;;
55497;SDS011;41357;52.806;18.268;2023-03-01T11:25:48;27.65;;;13.02;;
55497;SDS011;41357;52.806;18.268;2023-03-01T11:35:55;34.08;;;15.18;;
55497;SDS011;41357;52.806;18.268;2023-03-01T11:38:25;39.40;;;17.77;;
55497;SDS011;41357;52.806;18.268;2023-03-01T11:43:59;35.45;;;17.33;;
55497;SDS011;41357;52.806;18.268;2023-03-01T11:46:29;35.70;;;14.82;;
55497;SDS011;41357;52.806;18.268;2023-03-01T11:53:59;39.00;;;18.35;;
55497;SDS011;41357;52.806;18.268;2023-03-01T12:28:16;35.50;;;17.25;;
55497;SDS011;41357;52.806;18.268;2023-03-01T12:30:49;29.48;;;15.45;;
55497;SDS011;41357;52.806;18.268;2023-03-01T12:33:32;35.45;;;15.57;;
55497;SDS011;41357;52.806;18.268;2023-03-01T12:44:02;21.40;;;11.25;;
55497;SDS011;41357;52.806;18.268;2023-03-01T12:46:41;27.83;;;13.40;;
55497;SDS011;41357;52.806;18.268;2023-03-01T12:51:35;27.60;;;12.65;;
55497;SDS011;41357;52.806;18.268;2023-03-01T12:54:05;27.95;;;11.07;;
55497;SDS011;41357;52.806;18.268;2023-03-01T12:56:35;29.25;;;13.95;;
55497;SDS011;41357;52.806;18.268;2023-03-01T12:59:21;27.15;;;13.93;;
55497;SDS011;41357;52.806;18.268;2023-03-01T13:07:58;25.60;;;9.63;;
55497;SDS011;41357;52.806;18.268;2023-03-01T13:11:11;18.00;;;8.25;;
55497;SDS011;41357;52.806;18.268;2023-03-01T13:13:28;21.95;;;9.95;;
55497;SDS011;41357;52.806;18.268;2023-03-01T13:15:54;25.40;;;10.43;;
55497;SDS011;41357;52.806;18.268;2023-03-01T13:31:10;19.30;;;10.13;;
55497;SDS011;41357;52.806;18.268;2023-03-01T13:33:55;22.88;;;11.02;;
55497;SDS011;41357;52.806;18.268;2023-03-01T13:47:05;25.83;;;10.70;;
55497;SDS011;41357;52.806;18.268;2023-03-01T13:49:40;26.95;;;10.85;;
55497;SDS011;41357;52.806;18.268;2023-03-01T13:52:13;20.33;;;11.75;;
55497;SDS011;41357;52.806;18.268;2023-03-01T13:54:49;25.27;;;12.52;;
55497;SDS011;41357;52.806;18.268;2023-03-01T13:57:18;22.90;;;11.38;;
55497;SDS011;41357;52.806;18.268;2023-03-01T13:59:47;18.90;;;8.88;;
55497;SDS011;41357;52.806;18.268;2023-03-01T14:02:13;27.33;;;9.70;;
55497;SDS011;41357;52.806;18.268;2023-03-01T14:04:40;23.30;;;11.70;;
55497;SDS011;41357;52.806;18.268;2023-03-01T14:07:17;26.40;;;10.73;;
55497;SDS011;41357;52.806;18.268;2023-03-01T14:09:44;25.63;;;11.90;;
55497;SDS011;41357;52.806;18.268;2023-03-01T14:12:15;28.83;;;12.85;;
55497;SDS011;41357;52.806;18.268;2023-03-01T14:14:48;25.13;;;12.50;;
55497;SDS011;41357;52.806;18.268;2023-03-01T14:19:45;19.27;;;9.98;;
55497;SDS011;41357;52.806;18.268;2023-03-01T14:27:37;24.67;;;11.25;;
55497;SDS011;41357;52.806;18.268;2023-03-01T14:30:14;21.90;;;10.57;;
55497;SDS011;41357;52.806;18.268;2023-03-01T14:32:42;23.40;;;11.10;;
55497;SDS011;41357;52.806;18.268;2023-03-01T14:35:22;21.00;;;11.48;;
55497;SDS011;41357;52.806;18.268;2023-03-01T14:37:48;24.98;;;10.68;;
55497;SDS011;41357;52.806;18.268;2023-03-01T14:40:25;26.80;;;10.77;;
55497;SDS011;41357;52.806;18.268;2023-03-01T14:42:52;24.80;;;10.68;;
55497;SDS011;41357;52.806;18.268;2023-03-01T14:45:19;27.40;;;11.35;;
55497;SDS011;41357;52.806;18.268;2023-03-01T14:47:45;18.25;;;8.32;;
55497;SDS011;41357;52.806;18.268;2023-03-01T14:50:18;21.90;;;9.40;;
55497;SDS011;41357;52.806;18.268;2023-03-01T14:52:46;22.90;;;9.70;;
55497;SDS011;41357;52.806;18.268;2023-03-01T14:55:16;18.33;;;9.18;;
55497;SDS011;41357;52.806;18.268;2023-03-01T14:57:44;21.27;;;9.90;;
55497;SDS011;41357;52.806;18.268;2023-03-01T15:00:15;21.67;;;10.63;;
55497;SDS011;41357;52.806;18.268;2023-03-01T15:02:42;22.23;;;10.38;;
55497;SDS011;41357;52.806;18.268;2023-03-01T15:05:08;19.25;;;8.88;;
55497;SDS011;41357;52.806;18.268;2023-03-01T15:07:37;19.92;;;9.57;;
55497;SDS011;41357;52.806;18.268;2023-03-01T15:10:05;22.13;;;10.13;;
55497;SDS011;41357;52.806;18.268;2023-03-01T15:14:58;23.15;;;10.20;;
55497;SDS011;41357;52.806;18.268;2023-03-01T15:17:32;21.50;;;9.43;;
55497;SDS011;41357;52.806;18.268;2023-03-01T15:20:03;27.85;;;10.63;;
55497;SDS011;41357;52.806;18.268;2023-03-01T15:22:30;24.75;;;10.18;;
55497;SDS011;41357;52.806;18.268;2023-03-01T15:24:56;20.15;;;9.77;;
55497;SDS011;41357;52.806;18.268;2023-03-01T15:27:24;20.10;;;8.95;;
55497;SDS011;41357;52.806;18.268;2023-03-01T15:29:55;22.10;;;9.40;;
55497;SDS011;41357;52.806;18.268;2023-03-01T15:32:29;19.00;;;9.73;;
55497;SDS011;41357;52.806;18.268;2023-03-01T15:34:59;26.25;;;11.07;;
55497;SDS011;41357;52.806;18.268;2023-03-01T15:40:20;18.52;;;8.50;;
55497;SDS011;41357;52.806;18.268;2023-03-01T15:42:49;22.52;;;8.68;;
55497;SDS011;41357;52.806;18.268;2023-03-01T15:47:50;19.50;;;8.70;;
55497;SDS011;41357;52.806;18.268;2023-03-01T15:50:35;17.58;;;7.45;;
55497;SDS011;41357;52.806;18.268;2023-03-01T15:53:06;24.02;;;8.07;;
55497;SDS011;41357;52.806;18.268;2023-03-01T15:55:36;18.35;;;7.53;;
55497;SDS011;41357;52.806;18.268;2023-03-01T16:00:28;23.75;;;10.05;;
55497;SDS011;41357;52.806;18.268;2023-03-01T16:02:55;28.92;;;11.82;;
55497;SDS011;41357;52.806;18.268;2023-03-01T16:05:31;30.10;;;13.02;;
55497;SDS011;41357;52.806;18.268;2023-03-01T16:07:57;34.83;;;12.73;;
55497;SDS011;41357;52.806;18.268;2023-03-01T16:10:24;32.05;;;12.32;;
55497;SDS011;41357;52.806;18.268;2023-03-01T16:12:51;66.82;;;20.40;;
55497;SDS011;41357;52.806;18.268;2023-03-01T16:17:43;62.05;;;20.98;;
55497;SDS011;41357;52.806;18.268;2023-03-01T16:20:09;44.53;;;16.75;;
55497;SDS011;41357;52.806;18.268;2023-03-01T16:22:36;37.45;;;16.08;;
55497;SDS011;41357;52.806;18.268;2023-03-01T16:25:02;49.35;;;20.05;;
55497;SDS011;41357;52.806;18.268;2023-03-01T16:27:28;54.50;;;20.50;;
55497;SDS011;41357;52.806;18.268;2023-03-01T16:29:54;46.92;;;17.38;;
55497;SDS011;41357;52.806;18.268;2023-03-01T16:32:21;51.17;;;20.23;;
55497;SDS011;41357;52.806;18.268;2023-03-01T16:34:47;49.58;;;19.70;;
55497;SDS011;41357;52.806;18.268;2023-03-01T16:37:14;58.55;;;19.23;;
55497;SDS011;41357;52.806;18.268;2023-03-01T16:39:41;51.65;;;24.25;;